sensor_id;sensor_type;location;lat;lon;timestamp;P1;durP1;ratioP1;P2;durP2;ratioP2
45043;SDS011;30784;48.490;9.688;2023-04-25T00:00:30;7.13;;;1.70;;
45043;SDS011;30784;48.490;9.688;2023-04-25T00:02:55;3.92;;;1.40;;
45043;SDS011;30784;48.490;9.688;2023-04-25T00:05:21;4.63;;;1.50;;
45043;SDS011;30784;48.490;9.688;2023-04-25T00:07:51;4.75;;;1.70;;
45043;SDS011;30784;48.490;9.688;2023-04-25T00:10:16;6.57;;;1.70;;
45043;SDS011;30784;48.490;9.688;2023-04-25T00:12:42;5.53;;;1.50;;
45043;SDS011;30784;48.490;9.688;2023-04-25T00:15:08;5.38;;;1.65;;
45043;SDS011;30784;48.490;9.688;2023-04-25T00:17:34;4.18;;;1.17;;
45043;SDS011;30784;48.490;9.688;2023-04-25T00:20:00;6.07;;;1.67;;
45043;SDS011;30784;48.490;9.688;2023-04-25T00:22:29;5.18;;;1.52;;
45043;SDS011;30784;48.490;9.688;2023-04-25T00:24:55;4.68;;;1.65;;
45043;SDS011;30784;48.490;9.688;2023-04-25T00:27:24;4.57;;;1.55;;
45043;SDS011;30784;48.490;9.688;2023-04-25T00:29:50;5.65;;;1.75;;
45043;SDS011;30784;48.490;9.688;2023-04-25T00:32:16;6.82;;;1.98;;
45043;SDS011;30784;48.490;9.688;2023-04-25T00:34:41;7.40;;;1.80;;
45043;SDS011;30784;48.490;9.688;2023-04-25T00:37:07;5.20;;;1.58;;
45043;SDS011;30784;48.490;9.688;2023-04-25T00:39:33;5.05;;;1.63;;
45043;SDS011;30784;48.490;9.688;2023-04-25T00:41:58;5.20;;;1.60;;
45043;SDS011;30784;48.490;9.688;2023-04-25T00:44:24;6.13;;;1.70;;
45043;SDS011;30784;48.490;9.688;2023-04-25T00:46:51;5.72;;;1.80;;
45043;SDS011;30784;48.490;9.688;2023-04-25T00:49:18;5.32;;;1.60;;
45043;SDS011;30784;48.490;9.688;2023-04-25T00:51:44;4.63;;;1.45;;
45043;SDS011;30784;48.490;9.688;2023-04-25T00:54:10;5.78;;;1.50;;
45043;SDS011;30784;48.490;9.688;2023-04-25T00:56:37;6.00;;;1.60;;
45043;SDS011;30784;48.490;9.688;2023-04-25T00:59:03;4.70;;;1.40;;
45043;SDS011;30784;48.490;9.688;2023-04-25T01:01:29;5.13;;;1.70;;
45043;SDS011;30784;48.490;9.688;2023-04-25T01:03:56;5.10;;;1.65;;
45043;SDS011;30784;48.490;9.688;2023-04-25T01:06:24;6.05;;;1.83;;
45043;SDS011;30784;48.490;9.688;2023-04-25T01:08:49;5.00;;;1.58;;
45043;SDS011;30784;48.490;9.688;2023-04-25T01:11:16;4.22;;;1.38;;
45043;SDS011;30784;48.490;9.688;2023-04-25T01:13:42;4.90;;;1.83;;
45043;SDS011;30784;48.490;9.688;2023-04-25T01:16:08;4.82;;;1.40;;
45043;SDS011;30784;48.490;9.688;2023-04-25T01:18:33;6.30;;;1.50;;
45043;SDS011;30784;48.490;9.688;2023-04-25T01:21:12;5.13;;;1.50;;
45043;SDS011;30784;48.490;9.688;2023-04-25T01:23:38;4.32;;;1.50;;
45043;SDS011;30784;48.490;9.688;2023-04-25T01:26:06;4.15;;;1.48;;
45043;SDS011;30784;48.490;9.688;2023-04-25T01:28:33;4.45;;;1.38;;
45043;SDS011;30784;48.490;9.688;2023-04-25T01:30:59;7.15;;;1.85;;
45043;SDS011;30784;48.490;9.688;2023-04-25T01:33:24;4.22;;;1.40;;
45043;SDS011;30784;48.490;9.688;2023-04-25T01:35:50;6.00;;;1.63;;
45043;SDS011;30784;48.490;9.688;2023-04-25T01:38:16;4.05;;;1.42;;
45043;SDS011;30784;48.490;9.688;2023-04-25T01:40:42;5.45;;;1.52;;
45043;SDS011;30784;48.490;9.688;2023-04-25T01:43:10;5.38;;;1.70;;
45043;SDS011;30784;48.490;9.688;2023-04-25T01:45:40;6.15;;;1.50;;
45043;SDS011;30784;48.490;9.688;2023-04-25T01:48:10;6.15;;;1.65;;
45043;SDS011;30784;48.490;9.688;2023-04-25T01:50:38;4.75;;;1.38;;
45043;SDS011;30784;48.490;9.688;2023-04-25T01:53:04;5.38;;;1.50;;
45043;SDS011;30784;48.490;9.688;2023-04-25T01:55:30;6.75;;;1.60;;
45043;SDS011;30784;48.490;9.688;2023-04-25T01:57:56;4.88;;;1.63;;
45043;SDS011;30784;48.490;9.688;2023-04-25T02:00:22;3.95;;;1.58;;
45043;SDS011;30784;48.490;9.688;2023-04-25T02:02:48;5.53;;;1.67;;
45043;SDS011;30784;48.490;9.688;2023-04-25T02:05:15;6.45;;;1.60;;
45043;SDS011;30784;48.490;9.688;2023-04-25T02:07:41;4.30;;;1.40;;
45043;SDS011;30784;48.490;9.688;2023-04-25T02:10:07;5.82;;;1.55;;
45043;SDS011;30784;48.490;9.688;2023-04-25T02:12:33;5.60;;;1.60;;
45043;SDS011;30784;48.490;9.688;2023-04-25T02:15:00;4.65;;;1.50;;
45043;SDS011;30784;48.490;9.688;2023-04-25T02:17:25;4.32;;;1.40;;
45043;SDS011;30784;48.490;9.688;2023-04-25T02:19:51;4.78;;;1.63;;
45043;SDS011;30784;48.490;9.688;2023-04-25T02:22:17;5.57;;;1.60;;
45043;SDS011;30784;48.490;9.688;2023-04-25T02:24:42;5.18;;;1.55;;
45043;SDS011;30784;48.490;9.688;2023-04-25T02:27:08;4.05;;;1.40;;
45043;SDS011;30784;48.490;9.688;2023-04-25T02:29:33;5.07;;;1.45;;
45043;SDS011;30784;48.490;9.688;2023-04-25T02:31:59;5.05;;;1.67;;
45043;SDS011;30784;48.490;9.688;2023-04-25T02:34:24;5.65;;;1.60;;
45043;SDS011;30784;48.490;9.688;2023-04-25T02:36:50;5.30;;;1.67;;
45043;SDS011;30784;48.490;9.688;2023-04-25T02:39:16;5.50;;;1.60;;
45043;SDS011;30784;48.490;9.688;2023-04-25T02:41:42;4.47;;;1.65;;
45043;SDS011;30784;48.490;9.688;2023-04-25T02:44:07;6.38;;;1.90;;
45043;SDS011;30784;48.490;9.688;2023-04-25T02:46:33;5.65;;;1.70;;
45043;SDS011;30784;48.490;9.688;2023-04-25T02:48:58;6.78;;;1.90;;
45043;SDS011;30784;48.490;9.688;2023-04-25T02:51:24;5.30;;;1.60;;
45043;SDS011;30784;48.490;9.688;2023-04-25T02:53:50;5.72;;;1.70;;
45043;SDS011;30784;48.490;9.688;2023-04-25T02:56:15;5.03;;;1.60;;
45043;SDS011;30784;48.490;9.688;2023-04-25T02:58:41;6.55;;;1.77;;
45043;SDS011;30784;48.490;9.688;2023-04-25T03:01:06;4.30;;;1.40;;
45043;SDS011;30784;48.490;9.688;2023-04-25T03:03:32;5.30;;;1.70;;
45043;SDS011;30784;48.490;9.688;2023-04-25T03:05:57;6.13;;;1.65;;
45043;SDS011;30784;48.490;9.688;2023-04-25T03:08:23;6.68;;;1.70;;
45043;SDS011;30784;48.490;9.688;2023-04-25T03:10:50;7.25;;;1.70;;
45043;SDS011;30784;48.490;9.688;2023-04-25T03:13:17;6.38;;;1.60;;
45043;SDS011;30784;48.490;9.688;2023-04-25T03:15:43;5.13;;;1.80;;
45043;SDS011;30784;48.490;9.688;2023-04-25T03:18:09;6.03;;;1.75;;
45043;SDS011;30784;48.490;9.688;2023-04-25T03:20:34;7.40;;;1.60;;
45043;SDS011;30784;48.490;9.688;2023-04-25T03:23:00;4.97;;;1.63;;
45043;SDS011;30784;48.490;9.688;2023-04-25T03:25:26;6.47;;;1.67;;
45043;SDS011;30784;48.490;9.688;2023-04-25T03:27:51;4.65;;;1.55;;
45043;SDS011;30784;48.490;9.688;2023-04-25T03:30:17;6.50;;;2.05;;
45043;SDS011;30784;48.490;9.688;2023-04-25T03:32:42;5.70;;;1.50;;
45043;SDS011;30784;48.490;9.688;2023-04-25T03:35:08;6.55;;;1.65;;
45043;SDS011;30784;48.490;9.688;2023-04-25T03:37:33;4.97;;;1.45;;
45043;SDS011;30784;48.490;9.688;2023-04-25T03:39:59;5.53;;;1.65;;
45043;SDS011;30784;48.490;9.688;2023-04-25T03:42:25;5.38;;;1.60;;
45043;SDS011;30784;48.490;9.688;2023-04-25T03:44:51;5.13;;;1.42;;
45043;SDS011;30784;48.490;9.688;2023-04-25T03:47:16;5.28;;;1.40;;
45043;SDS011;30784;48.490;9.688;2023-04-25T03:49:42;4.60;;;1.42;;
45043;SDS011;30784;48.490;9.688;2023-04-25T03:52:08;4.85;;;1.60;;
45043;SDS011;30784;48.490;9.688;2023-04-25T03:54:33;7.47;;;1.65;;
45043;SDS011;30784;48.490;9.688;2023-04-25T03:56:59;6.38;;;1.70;;
45043;SDS011;30784;48.490;9.688;2023-04-25T03:59:24;4.95;;;1.70;;
45043;SDS011;30784;48.490;9.688;2023-04-25T04:01:51;5.35;;;1.38;;
45043;SDS011;30784;48.490;9.688;2023-04-25T04:04:17;5.82;;;1.60;;
45043;SDS011;30784;48.490;9.688;2023-04-25T04:06:42;5.10;;;1.67;;
45043;SDS011;30784;48.490;9.688;2023-04-25T04:09:08;5.32;;;1.88;;
45043;SDS011;30784;48.490;9.688;2023-04-25T04:11:36;7.15;;;1.60;;
45043;SDS011;30784;48.490;9.688;2023-04-25T04:14:03;6.30;;;1.83;;
45043;SDS011;30784;48.490;9.688;2023-04-25T04:16:30;4.95;;;1.70;;
45043;SDS011;30784;48.490;9.688;2023-04-25T04:18:56;5.82;;;1.90;;
45043;SDS011;30784;48.490;9.688;2023-04-25T04:21:21;6.20;;;2.10;;
45043;SDS011;30784;48.490;9.688;2023-04-25T04:23:47;5.80;;;1.90;;
45043;SDS011;30784;48.490;9.688;2023-04-25T04:26:13;5.93;;;1.90;;
45043;SDS011;30784;48.490;9.688;2023-04-25T04:28:41;5.43;;;2.00;;
45043;SDS011;30784;48.490;9.688;2023-04-25T04:31:08;6.47;;;1.70;;
45043;SDS011;30784;48.490;9.688;2023-04-25T04:33:34;6.45;;;1.80;;
45043;SDS011;30784;48.490;9.688;2023-04-25T04:36:01;5.90;;;1.88;;
45043;SDS011;30784;48.490;9.688;2023-04-25T04:38:28;5.78;;;1.83;;
45043;SDS011;30784;48.490;9.688;2023-04-25T04:40:54;5.97;;;1.80;;
45043;SDS011;30784;48.490;9.688;2023-04-25T04:43:19;6.85;;;2.00;;
45043;SDS011;30784;48.490;9.688;2023-04-25T04:45:45;5.93;;;1.67;;
45043;SDS011;30784;48.490;9.688;2023-04-25T04:48:10;6.50;;;1.63;;
45043;SDS011;30784;48.490;9.688;2023-04-25T04:50:39;4.90;;;1.40;;
45043;SDS011;30784;48.490;9.688;2023-04-25T04:53:05;4.15;;;1.40;;
45043;SDS011;30784;48.490;9.688;2023-04-25T04:55:30;11.00;;;4.15;;
45043;SDS011;30784;48.490;9.688;2023-04-25T04:57:56;14.38;;;6.13;;
45043;SDS011;30784;48.490;9.688;2023-04-25T05:00:22;11.98;;;4.88;;
45043;SDS011;30784;48.490;9.688;2023-04-25T05:02:47;8.55;;;2.95;;
45043;SDS011;30784;48.490;9.688;2023-04-25T05:05:13;6.50;;;2.30;;
45043;SDS011;30784;48.490;9.688;2023-04-25T05:07:38;5.63;;;1.80;;
45043;SDS011;30784;48.490;9.688;2023-04-25T05:10:04;5.25;;;1.70;;
45043;SDS011;30784;48.490;9.688;2023-04-25T05:12:31;4.70;;;1.60;;
45043;SDS011;30784;48.490;9.688;2023-04-25T05:14:57;6.53;;;1.60;;
45043;SDS011;30784;48.490;9.688;2023-04-25T05:17:22;4.88;;;1.52;;
45043;SDS011;30784;48.490;9.688;2023-04-25T05:19:48;6.43;;;1.75;;
45043;SDS011;30784;48.490;9.688;2023-04-25T05:22:13;5.22;;;1.80;;
45043;SDS011;30784;48.490;9.688;2023-04-25T05:24:39;5.25;;;1.85;;
45043;SDS011;30784;48.490;9.688;2023-04-25T05:27:05;7.25;;;2.00;;
45043;SDS011;30784;48.490;9.688;2023-04-25T05:29:30;6.28;;;1.60;;
45043;SDS011;30784;48.490;9.688;2023-04-25T05:31:56;6.53;;;1.70;;
45043;SDS011;30784;48.490;9.688;2023-04-25T05:34:21;5.05;;;1.80;;
45043;SDS011;30784;48.490;9.688;2023-04-25T05:36:47;4.93;;;1.65;;
45043;SDS011;30784;48.490;9.688;2023-04-25T05:39:14;4.53;;;1.52;;
45043;SDS011;30784;48.490;9.688;2023-04-25T05:41:41;4.57;;;1.60;;
45043;SDS011;30784;48.490;9.688;2023-04-25T05:44:06;5.18;;;2.13;;
45043;SDS011;30784;48.490;9.688;2023-04-25T05:46:32;4.88;;;1.48;;
45043;SDS011;30784;48.490;9.688;2023-04-25T05:48:57;6.13;;;1.70;;
45043;SDS011;30784;48.490;9.688;2023-04-25T05:51:23;6.78;;;1.60;;
45043;SDS011;30784;48.490;9.688;2023-04-25T05:53:49;8.95;;;2.50;;
45043;SDS011;30784;48.490;9.688;2023-04-25T05:56:14;8.00;;;2.95;;
45043;SDS011;30784;48.490;9.688;2023-04-25T05:58:40;7.55;;;2.70;;
45043;SDS011;30784;48.490;9.688;2023-04-25T06:01:06;6.25;;;2.15;;
45043;SDS011;30784;48.490;9.688;2023-04-25T06:03:31;6.93;;;2.20;;
45043;SDS011;30784;48.490;9.688;2023-04-25T06:05:57;5.70;;;1.70;;
45043;SDS011;30784;48.490;9.688;2023-04-25T06:08:22;5.45;;;1.80;;
45043;SDS011;30784;48.490;9.688;2023-04-25T06:10:48;5.30;;;1.67;;
45043;SDS011;30784;48.490;9.688;2023-04-25T06:13:16;5.95;;;1.75;;
45043;SDS011;30784;48.490;9.688;2023-04-25T06:15:41;5.85;;;2.10;;
45043;SDS011;30784;48.490;9.688;2023-04-25T06:18:07;8.88;;;2.70;;
45043;SDS011;30784;48.490;9.688;2023-04-25T06:20:33;7.13;;;1.70;;
45043;SDS011;30784;48.490;9.688;2023-04-25T06:22:59;7.88;;;1.80;;
45043;SDS011;30784;48.490;9.688;2023-04-25T06:25:24;5.00;;;1.42;;
45043;SDS011;30784;48.490;9.688;2023-04-25T06:27:50;5.70;;;1.70;;
45043;SDS011;30784;48.490;9.688;2023-04-25T06:30:15;4.68;;;1.60;;
45043;SDS011;30784;48.490;9.688;2023-04-25T06:32:43;6.80;;;1.80;;
45043;SDS011;30784;48.490;9.688;2023-04-25T06:35:09;5.35;;;1.50;;
45043;SDS011;30784;48.490;9.688;2023-04-25T06:37:35;5.28;;;1.50;;
45043;SDS011;30784;48.490;9.688;2023-04-25T06:40:00;4.88;;;1.55;;
45043;SDS011;30784;48.490;9.688;2023-04-25T06:42:27;5.88;;;2.30;;
45043;SDS011;30784;48.490;9.688;2023-04-25T06:44:52;7.95;;;2.80;;
45043;SDS011;30784;48.490;9.688;2023-04-25T06:47:18;6.30;;;2.00;;
45043;SDS011;30784;48.490;9.688;2023-04-25T06:49:43;5.07;;;1.70;;
45043;SDS011;30784;48.490;9.688;2023-04-25T06:52:09;5.88;;;1.80;;
45043;SDS011;30784;48.490;9.688;2023-04-25T06:54:35;4.78;;;1.60;;
45043;SDS011;30784;48.490;9.688;2023-04-25T06:57:01;5.57;;;1.75;;
45043;SDS011;30784;48.490;9.688;2023-04-25T06:59:26;4.53;;;1.45;;
45043;SDS011;30784;48.490;9.688;2023-04-25T07:01:52;6.80;;;1.70;;
45043;SDS011;30784;48.490;9.688;2023-04-25T07:04:17;4.55;;;1.65;;
45043;SDS011;30784;48.490;9.688;2023-04-25T07:06:43;6.15;;;1.80;;
45043;SDS011;30784;48.490;9.688;2023-04-25T07:09:09;6.90;;;1.98;;
45043;SDS011;30784;48.490;9.688;2023-04-25T07:11:35;5.38;;;1.63;;
45043;SDS011;30784;48.490;9.688;2023-04-25T07:14:01;5.35;;;1.40;;
45043;SDS011;30784;48.490;9.688;2023-04-25T07:16:27;6.30;;;1.70;;
45043;SDS011;30784;48.490;9.688;2023-04-25T07:18:52;5.82;;;1.70;;
45043;SDS011;30784;48.490;9.688;2023-04-25T07:21:18;6.00;;;1.60;;
45043;SDS011;30784;48.490;9.688;2023-04-25T07:23:44;5.63;;;1.60;;
45043;SDS011;30784;48.490;9.688;2023-04-25T07:26:09;6.22;;;1.52;;
45043;SDS011;30784;48.490;9.688;2023-04-25T07:28:35;4.45;;;1.52;;
45043;SDS011;30784;48.490;9.688;2023-04-25T07:31:00;6.53;;;1.65;;
45043;SDS011;30784;48.490;9.688;2023-04-25T07:33:26;6.10;;;1.50;;
45043;SDS011;30784;48.490;9.688;2023-04-25T07:35:52;5.50;;;1.80;;
45043;SDS011;30784;48.490;9.688;2023-04-25T07:38:18;6.93;;;2.00;;
45043;SDS011;30784;48.490;9.688;2023-04-25T07:40:43;7.38;;;2.38;;
45043;SDS011;30784;48.490;9.688;2023-04-25T07:43:09;5.63;;;1.77;;
45043;SDS011;30784;48.490;9.688;2023-04-25T07:45:37;5.70;;;1.67;;
45043;SDS011;30784;48.490;9.688;2023-04-25T07:48:02;4.97;;;1.50;;
45043;SDS011;30784;48.490;9.688;2023-04-25T07:50:28;4.53;;;1.42;;
45043;SDS011;30784;48.490;9.688;2023-04-25T07:52:54;5.82;;;1.58;;
45043;SDS011;30784;48.490;9.688;2023-04-25T07:55:19;5.13;;;1.52;;
45043;SDS011;30784;48.490;9.688;2023-04-25T07:57:45;6.65;;;1.70;;
45043;SDS011;30784;48.490;9.688;2023-04-25T08:00:10;5.63;;;1.30;;
45043;SDS011;30784;48.490;9.688;2023-04-25T08:02:37;6.07;;;1.65;;
45043;SDS011;30784;48.490;9.688;2023-04-25T08:05:02;7.13;;;1.90;;
45043;SDS011;30784;48.490;9.688;2023-04-25T08:07:28;4.50;;;1.52;;
45043;SDS011;30784;48.490;9.688;2023-04-25T08:09:54;6.05;;;1.95;;
45043;SDS011;30784;48.490;9.688;2023-04-25T08:12:20;6.60;;;1.52;;
45043;SDS011;30784;48.490;9.688;2023-04-25T08:14:45;4.20;;;1.40;;
45043;SDS011;30784;48.490;9.688;2023-04-25T08:17:11;6.53;;;1.40;;
45043;SDS011;30784;48.490;9.688;2023-04-25T08:19:36;6.00;;;1.48;;
45043;SDS011;30784;48.490;9.688;2023-04-25T08:22:02;7.78;;;1.45;;
45043;SDS011;30784;48.490;9.688;2023-04-25T08:24:28;4.65;;;1.30;;
45043;SDS011;30784;48.490;9.688;2023-04-25T08:26:53;4.38;;;1.23;;
45043;SDS011;30784;48.490;9.688;2023-04-25T08:29:19;4.05;;;1.20;;
45043;SDS011;30784;48.490;9.688;2023-04-25T08:31:45;18.65;;;2.58;;
45043;SDS011;30784;48.490;9.688;2023-04-25T08:34:10;14.20;;;2.40;;
45043;SDS011;30784;48.490;9.688;2023-04-25T08:36:36;5.78;;;1.77;;
45043;SDS011;30784;48.490;9.688;2023-04-25T08:39:01;7.72;;;2.05;;
45043;SDS011;30784;48.490;9.688;2023-04-25T08:41:27;7.30;;;2.00;;
45043;SDS011;30784;48.490;9.688;2023-04-25T08:43:53;6.50;;;1.38;;
45043;SDS011;30784;48.490;9.688;2023-04-25T08:46:20;6.00;;;1.52;;
45043;SDS011;30784;48.490;9.688;2023-04-25T08:48:47;4.55;;;1.45;;
45043;SDS011;30784;48.490;9.688;2023-04-25T08:51:17;5.15;;;1.52;;
45043;SDS011;30784;48.490;9.688;2023-04-25T08:53:48;6.20;;;1.90;;
45043;SDS011;30784;48.490;9.688;2023-04-25T08:56:16;7.32;;;2.60;;
45043;SDS011;30784;48.490;9.688;2023-04-25T08:58:50;6.20;;;1.98;;
45043;SDS011;30784;48.490;9.688;2023-04-25T09:01:16;3.92;;;1.35;;
45043;SDS011;30784;48.490;9.688;2023-04-25T09:03:43;3.38;;;1.10;;
45043;SDS011;30784;48.490;9.688;2023-04-25T09:06:10;4.55;;;1.38;;
45043;SDS011;30784;48.490;9.688;2023-04-25T09:08:36;5.13;;;1.50;;
45043;SDS011;30784;48.490;9.688;2023-04-25T09:11:02;3.75;;;1.10;;
45043;SDS011;30784;48.490;9.688;2023-04-25T09:13:31;4.63;;;1.30;;
45043;SDS011;30784;48.490;9.688;2023-04-25T09:15:57;3.92;;;1.35;;
45043;SDS011;30784;48.490;9.688;2023-04-25T09:18:23;6.07;;;1.60;;
45043;SDS011;30784;48.490;9.688;2023-04-25T09:20:51;4.43;;;1.60;;
45043;SDS011;30784;48.490;9.688;2023-04-25T09:23:18;5.28;;;1.77;;
45043;SDS011;30784;48.490;9.688;2023-04-25T09:25:46;4.68;;;1.50;;
45043;SDS011;30784;48.490;9.688;2023-04-25T09:28:14;4.90;;;1.38;;
45043;SDS011;30784;48.490;9.688;2023-04-25T09:30:39;5.22;;;1.70;;
45043;SDS011;30784;48.490;9.688;2023-04-25T09:35:38;5.22;;;1.70;;
45043;SDS011;30784;48.490;9.688;2023-04-25T09:38:12;4.70;;;1.75;;
45043;SDS011;30784;48.490;9.688;2023-04-25T09:40:42;4.47;;;1.60;;
45043;SDS011;30784;48.490;9.688;2023-04-25T09:43:10;5.28;;;1.70;;
45043;SDS011;30784;48.490;9.688;2023-04-25T09:45:43;4.30;;;1.52;;
45043;SDS011;30784;48.490;9.688;2023-04-25T09:48:11;3.97;;;1.50;;
45043;SDS011;30784;48.490;9.688;2023-04-25T09:50:37;4.45;;;1.67;;
45043;SDS011;30784;48.490;9.688;2023-04-25T09:53:04;4.32;;;1.42;;
45043;SDS011;30784;48.490;9.688;2023-04-25T09:55:31;4.03;;;1.40;;
45043;SDS011;30784;48.490;9.688;2023-04-25T09:57:57;3.80;;;1.38;;
45043;SDS011;30784;48.490;9.688;2023-04-25T10:00:32;14.10;;;1.92;;
45043;SDS011;30784;48.490;9.688;2023-04-25T10:02:59;5.47;;;1.70;;
45043;SDS011;30784;48.490;9.688;2023-04-25T10:05:28;4.53;;;1.40;;
45043;SDS011;30784;48.490;9.688;2023-04-25T10:07:57;2.60;;;0.90;;
45043;SDS011;30784;48.490;9.688;2023-04-25T10:10:24;3.08;;;1.00;;
45043;SDS011;30784;48.490;9.688;2023-04-25T10:12:52;2.67;;;1.08;;
45043;SDS011;30784;48.490;9.688;2023-04-25T10:15:19;3.38;;;1.20;;
45043;SDS011;30784;48.490;9.688;2023-04-25T10:17:45;3.10;;;1.15;;
45043;SDS011;30784;48.490;9.688;2023-04-25T10:20:11;5.05;;;1.63;;
45043;SDS011;30784;48.490;9.688;2023-04-25T10:22:37;3.75;;;1.30;;
45043;SDS011;30784;48.490;9.688;2023-04-25T10:25:07;2.85;;;1.10;;
45043;SDS011;30784;48.490;9.688;2023-04-25T10:27:35;3.92;;;1.25;;
45043;SDS011;30784;48.490;9.688;2023-04-25T10:30:02;3.15;;;0.98;;
45043;SDS011;30784;48.490;9.688;2023-04-25T10:32:35;2.97;;;1.13;;
45043;SDS011;30784;48.490;9.688;2023-04-25T10:35:12;2.55;;;1.00;;
45043;SDS011;30784;48.490;9.688;2023-04-25T10:38:05;2.78;;;1.10;;
45043;SDS011;30784;48.490;9.688;2023-04-25T10:40:35;4.28;;;1.30;;
45043;SDS011;30784;48.490;9.688;2023-04-25T10:46:00;3.05;;;1.30;;
45043;SDS011;30784;48.490;9.688;2023-04-25T10:48:29;3.97;;;1.27;;
45043;SDS011;30784;48.490;9.688;2023-04-25T10:51:08;4.87;;;1.50;;
45043;SDS011;30784;48.490;9.688;2023-04-25T10:53:34;3.80;;;1.40;;
45043;SDS011;30784;48.490;9.688;2023-04-25T10:56:00;4.30;;;1.27;;
45043;SDS011;30784;48.490;9.688;2023-04-25T10:58:33;4.55;;;1.25;;
45043;SDS011;30784;48.490;9.688;2023-04-25T11:00:59;4.55;;;1.23;;
45043;SDS011;30784;48.490;9.688;2023-04-25T11:03:26;3.60;;;1.20;;
45043;SDS011;30784;48.490;9.688;2023-04-25T11:05:52;2.38;;;1.00;;
45043;SDS011;30784;48.490;9.688;2023-04-25T11:08:20;2.95;;;0.88;;
45043;SDS011;30784;48.490;9.688;2023-04-25T11:10:58;3.22;;;0.90;;
45043;SDS011;30784;48.490;9.688;2023-04-25T11:13:28;3.10;;;0.90;;
45043;SDS011;30784;48.490;9.688;2023-04-25T11:15:55;2.15;;;0.80;;
45043;SDS011;30784;48.490;9.688;2023-04-25T11:18:20;1.55;;;0.63;;
45043;SDS011;30784;48.490;9.688;2023-04-25T11:20:46;2.78;;;0.70;;
45043;SDS011;30784;48.490;9.688;2023-04-25T11:23:13;2.50;;;0.85;;
45043;SDS011;30784;48.490;9.688;2023-04-25T11:25:40;1.92;;;0.80;;
45043;SDS011;30784;48.490;9.688;2023-04-25T11:28:06;3.17;;;0.98;;
45043;SDS011;30784;48.490;9.688;2023-04-25T11:30:31;3.22;;;0.95;;
45043;SDS011;30784;48.490;9.688;2023-04-25T11:32:57;4.13;;;1.10;;
45043;SDS011;30784;48.490;9.688;2023-04-25T11:35:22;3.72;;;1.20;;
45043;SDS011;30784;48.490;9.688;2023-04-25T11:37:50;3.33;;;1.00;;
45043;SDS011;30784;48.490;9.688;2023-04-25T11:40:16;3.00;;;1.08;;
45043;SDS011;30784;48.490;9.688;2023-04-25T11:42:45;2.78;;;0.85;;
45043;SDS011;30784;48.490;9.688;2023-04-25T11:45:12;2.55;;;0.80;;
45043;SDS011;30784;48.490;9.688;2023-04-25T11:47:39;5.75;;;1.13;;
45043;SDS011;30784;48.490;9.688;2023-04-25T11:50:05;3.85;;;0.75;;
45043;SDS011;30784;48.490;9.688;2023-04-25T11:52:42;1.42;;;0.50;;
45043;SDS011;30784;48.490;9.688;2023-04-25T11:55:12;1.13;;;0.40;;
45043;SDS011;30784;48.490;9.688;2023-04-25T11:57:39;1.17;;;0.45;;
45043;SDS011;30784;48.490;9.688;2023-04-25T12:00:10;0.40;;;0.30;;
45043;SDS011;30784;48.490;9.688;2023-04-25T12:02:36;0.50;;;0.28;;
45043;SDS011;30784;48.490;9.688;2023-04-25T12:05:02;0.90;;;0.40;;
45043;SDS011;30784;48.490;9.688;2023-04-25T12:07:31;0.60;;;0.30;;
45043;SDS011;30784;48.490;9.688;2023-04-25T12:09:56;1.17;;;0.35;;
45043;SDS011;30784;48.490;9.688;2023-04-25T12:12:23;1.67;;;0.50;;
45043;SDS011;30784;48.490;9.688;2023-04-25T12:14:52;2.15;;;0.50;;
45043;SDS011;30784;48.490;9.688;2023-04-25T12:17:20;0.32;;;0.17;;
45043;SDS011;30784;48.490;9.688;2023-04-25T12:19:47;0.50;;;0.20;;
45043;SDS011;30784;48.490;9.688;2023-04-25T12:22:19;0.73;;;0.25;;
45043;SDS011;30784;48.490;9.688;2023-04-25T12:24:47;0.88;;;0.30;;
45043;SDS011;30784;48.490;9.688;2023-04-25T12:27:13;0.55;;;0.30;;
45043;SDS011;30784;48.490;9.688;2023-04-25T12:29:49;1.05;;;0.38;;
45043;SDS011;30784;48.490;9.688;2023-04-25T12:32:16;1.30;;;0.50;;
45043;SDS011;30784;48.490;9.688;2023-04-25T12:34:42;1.48;;;0.55;;
45043;SDS011;30784;48.490;9.688;2023-04-25T12:37:08;1.00;;;0.50;;
45043;SDS011;30784;48.490;9.688;2023-04-25T12:39:34;2.90;;;1.00;;
45043;SDS011;30784;48.490;9.688;2023-04-25T12:42:02;3.33;;;0.95;;
45043;SDS011;30784;48.490;9.688;2023-04-25T12:44:28;2.35;;;0.50;;
45043;SDS011;30784;48.490;9.688;2023-04-25T12:46:53;1.38;;;0.40;;
45043;SDS011;30784;48.490;9.688;2023-04-25T12:49:19;0.65;;;0.20;;
45043;SDS011;30784;48.490;9.688;2023-04-25T12:51:45;0.52;;;0.20;;
45043;SDS011;30784;48.490;9.688;2023-04-25T12:54:11;0.55;;;0.20;;
45043;SDS011;30784;48.490;9.688;2023-04-25T12:56:37;1.80;;;0.70;;
45043;SDS011;30784;48.490;9.688;2023-04-25T12:59:03;1.00;;;0.50;;
45043;SDS011;30784;48.490;9.688;2023-04-25T13:01:28;1.35;;;0.52;;
45043;SDS011;30784;48.490;9.688;2023-04-25T13:03:54;2.20;;;0.60;;
45043;SDS011;30784;48.490;9.688;2023-04-25T13:06:20;1.38;;;0.35;;
45043;SDS011;30784;48.490;9.688;2023-04-25T13:08:49;1.85;;;0.57;;
45043;SDS011;30784;48.490;9.688;2023-04-25T13:11:15;0.93;;;0.40;;
45043;SDS011;30784;48.490;9.688;2023-04-25T13:13:40;0.75;;;0.30;;
45043;SDS011;30784;48.490;9.688;2023-04-25T13:16:07;1.55;;;0.43;;
45043;SDS011;30784;48.490;9.688;2023-04-25T13:18:33;0.98;;;0.30;;
45043;SDS011;30784;48.490;9.688;2023-04-25T13:20:59;1.50;;;0.43;;
45043;SDS011;30784;48.490;9.688;2023-04-25T13:23:25;1.20;;;0.47;;
45043;SDS011;30784;48.490;9.688;2023-04-25T13:25:53;1.80;;;0.52;;
45043;SDS011;30784;48.490;9.688;2023-04-25T13:28:20;2.13;;;0.70;;
45043;SDS011;30784;48.490;9.688;2023-04-25T13:30:46;1.52;;;0.50;;
45043;SDS011;30784;48.490;9.688;2023-04-25T13:33:12;1.33;;;0.40;;
45043;SDS011;30784;48.490;9.688;2023-04-25T13:35:39;2.70;;;0.75;;
45043;SDS011;30784;48.490;9.688;2023-04-25T13:38:05;1.15;;;0.55;;
45043;SDS011;30784;48.490;9.688;2023-04-25T13:40:31;2.63;;;0.75;;
45043;SDS011;30784;48.490;9.688;2023-04-25T13:42:57;4.82;;;1.48;;
45043;SDS011;30784;48.490;9.688;2023-04-25T13:45:22;4.95;;;1.38;;
45043;SDS011;30784;48.490;9.688;2023-04-25T13:47:48;5.18;;;1.60;;
45043;SDS011;30784;48.490;9.688;2023-04-25T13:50:14;5.43;;;2.08;;
45043;SDS011;30784;48.490;9.688;2023-04-25T13:52:40;6.80;;;2.47;;
45043;SDS011;30784;48.490;9.688;2023-04-25T13:55:07;8.95;;;3.15;;
45043;SDS011;30784;48.490;9.688;2023-04-25T13:57:33;6.68;;;2.40;;
45043;SDS011;30784;48.490;9.688;2023-04-25T14:00:00;6.05;;;2.10;;
45043;SDS011;30784;48.490;9.688;2023-04-25T14:02:29;8.05;;;2.67;;
45043;SDS011;30784;48.490;9.688;2023-04-25T14:04:55;8.65;;;3.58;;
45043;SDS011;30784;48.490;9.688;2023-04-25T14:07:21;9.48;;;4.10;;
45043;SDS011;30784;48.490;9.688;2023-04-25T14:09:46;8.05;;;2.95;;
45043;SDS011;30784;48.490;9.688;2023-04-25T14:12:12;9.07;;;3.00;;
45043;SDS011;30784;48.490;9.688;2023-04-25T14:14:37;6.30;;;2.40;;
45043;SDS011;30784;48.490;9.688;2023-04-25T14:17:03;7.30;;;3.00;;
45043;SDS011;30784;48.490;9.688;2023-04-25T14:19:29;8.40;;;2.65;;
45043;SDS011;30784;48.490;9.688;2023-04-25T14:21:54;6.50;;;2.33;;
45043;SDS011;30784;48.490;9.688;2023-04-25T14:24:21;5.80;;;2.30;;
45043;SDS011;30784;48.490;9.688;2023-04-25T14:26:46;6.13;;;2.08;;
45043;SDS011;30784;48.490;9.688;2023-04-25T14:29:12;4.78;;;1.88;;
45043;SDS011;30784;48.490;9.688;2023-04-25T14:31:38;5.93;;;2.13;;
45043;SDS011;30784;48.490;9.688;2023-04-25T14:34:05;5.80;;;2.00;;
45043;SDS011;30784;48.490;9.688;2023-04-25T14:36:31;7.88;;;2.13;;
45043;SDS011;30784;48.490;9.688;2023-04-25T14:38:57;4.43;;;1.75;;
45043;SDS011;30784;48.490;9.688;2023-04-25T14:41:24;5.75;;;1.90;;
45043;SDS011;30784;48.490;9.688;2023-04-25T14:43:50;5.30;;;2.00;;
45043;SDS011;30784;48.490;9.688;2023-04-25T14:46:15;4.80;;;1.98;;
45043;SDS011;30784;48.490;9.688;2023-04-25T14:48:41;6.60;;;2.28;;